Time;durP1;ratioP1;P1;durP2;ratioP2;P2;SDS_P1;SDS_P2;PMS_P1;PMS_P2;Temp;Humidity;BMP_temperature;BMP_pressure;BME280_temperature;BME280_humidity;BME280_pressure;Samples;Min_cycle;Max_cycle;Signal;HPM_P1;HPM_P2
2022/08/26 00:01:15;;;;;;;;;;;20.40;99.90;;;;;;5051046;28;19958;-73
2022/08/26 00:03:40;;;;;;;;;;;20.40;99.90;;;;;;5044448;28;20003;-73
2022/08/26 00:06:06;;;;;;;;;;;20.40;99.90;;;;;;5050809;28;20315;-72
2022/08/26 00:08:32;;;;;;;;;;;20.40;99.90;;;;;;5036749;28;19908;-74
2022/08/26 00:10:58;;;;;;;;;;;20.40;99.90;;;;;;5044480;28;19987;-72
2022/08/26 00:13:23;;;;;;;;;;;20.40;99.90;;;;;;5048442;28;20308;-74
2022/08/26 00:15:50;;;;;;;;;;;20.40;99.90;;;;;;5053217;28;20154;-75
2022/08/26 00:18:15;;;;;;;;;;;20.40;99.90;;;;;;5034717;28;19913;-73
2022/08/26 00:20:41;;;;;;;;;;;20.40;99.90;;;;;;5053779;28;19916;-72
2022/08/26 00:23:07;;;;;;;;;;;20.40;99.90;;;;;;5048561;28;19999;-73
2022/08/26 00:25:32;;;;;;;;;;;20.40;99.90;;;;;;5055901;28;19917;-74
2022/08/26 00:27:58;;;;;;;;;;;20.30;99.90;;;;;;5037534;28;19913;-75
2022/08/26 00:30:25;;;;;;;;;;;20.40;99.90;;;;;;5054364;28;19966;-72
2022/08/26 00:32:51;;;;;;;;;;;20.30;99.90;;;;;;5056059;28;19938;-74
2022/08/26 00:35:17;;;;;;;;;;;20.30;99.90;;;;;;5056115;28;20350;-75
2022/08/26 00:37:43;;;;;;;;;;;20.40;99.90;;;;;;5028132;28;19921;-74
2022/08/26 00:40:11;;;;;;;;;;;20.40;99.90;;;;;;5037634;28;19970;-75
2022/08/26 00:42:37;;;;;;;;;;;20.30;99.90;;;;;;5057034;28;19913;-75
2022/08/26 00:45:03;;;;;;;;;;;20.30;99.90;;;;;;5038183;28;20197;-74
2022/08/26 00:47:28;;;;;;;;;;;20.30;99.90;;;;;;5041403;28;19913;-76
2022/08/26 00:49:55;;;;;;;;;;;20.30;99.90;;;;;;5039100;28;19920;-74
2022/08/26 00:52:20;;;;;;;;;;;20.30;99.90;;;;;;5042692;28;20251;-75
2022/08/26 00:54:55;;;;;;;;;;;20.30;99.90;;;;;;5044747;28;19954;-75
2022/08/26 00:57:21;;;;;;;;;;;20.40;99.90;;;;;;5041328;28;19920;-75
2022/08/26 00:59:50;;;;;;;;;;;20.30;99.90;;;;;;5053115;28;19916;-75
2022/08/26 01:02:15;;;;;;;;;;;20.30;99.90;;;;;;5037489;28;19921;-73
2022/08/26 01:04:41;;;;;;;;;;;20.30;99.90;;;;;;5056060;28;19931;-75
2022/08/26 01:07:07;;;;;;;;;;;20.30;99.90;;;;;;5044057;28;19924;-76
2022/08/26 01:09:33;;;;;;;;;;;20.30;99.90;;;;;;5041673;28;19917;-72
2022/08/26 01:12:00;;;;;;;;;;;20.30;99.90;;;;;;5056596;28;19919;-74
2022/08/26 01:14:28;;;;;;;;;;;20.30;99.90;;;;;;5053153;28;20223;-75
2022/08/26 01:16:54;;;;;;;;;;;20.40;99.90;;;;;;5052101;28;19949;-73
2022/08/26 01:19:30;;;;;;;;;;;20.30;99.90;;;;;;5055686;28;20006;-74
2022/08/26 01:21:58;;;;;;;;;;;20.30;99.90;;;;;;5056717;28;19920;-76
2022/08/26 01:24:26;;;;;;;;;;;20.20;99.90;;;;;;5038223;28;19913;-76
2022/08/26 01:26:54;;;;;;;;;;;20.20;99.90;;;;;;5043710;28;20211;-77
2022/08/26 01:29:20;;;;;;;;;;;20.20;99.90;;;;;;5049667;28;19951;-73
2022/08/26 01:31:48;;;;;;;;;;;20.20;99.90;;;;;;5041874;28;19948;-75
2022/08/26 01:34:13;;;;;;;;;;;20.20;99.90;;;;;;5037504;28;20369;-74
2022/08/26 01:36:39;;;;;;;;;;;20.20;99.90;;;;;;5055931;28;19962;-75
2022/08/26 01:39:05;;;;;;;;;;;20.20;99.90;;;;;;5056468;28;19944;-76
2022/08/26 01:41:32;;;;;;;;;;;20.20;99.90;;;;;;5055784;28;19917;-75
2022/08/26 01:43:58;;;;;;;;;;;20.20;99.90;;;;;;5049879;28;20351;-77
2022/08/26 01:46:25;;;;;;;;;;;20.10;99.90;;;;;;5056263;28;19959;-76
2022/08/26 01:48:51;;;;;;;;;;;20.20;99.90;;;;;;5034911;28;20336;-75
2022/08/26 01:51:18;;;;;;;;;;;20.10;99.90;;;;;;5056382;28;19983;-76
2022/08/26 01:53:44;;;;;;;;;;;20.10;99.90;;;;;;5036091;28;19967;-74
2022/08/26 01:56:10;;;;;;;;;;;20.20;99.90;;;;;;5055033;28;19956;-76
2022/08/26 01:58:47;;;;;;;;;;;20.10;99.90;;;;;;5035826;28;19909;-74
2022/08/26 02:01:13;;;;;;;;;;;20.10;99.90;;;;;;5049470;28;19919;-72
2022/08/26 02:03:45;;;;;;;;;;;20.10;99.90;;;;;;5054671;28;19909;-75
2022/08/26 02:06:10;;;;;;;;;;;20.10;99.90;;;;;;5034843;28;20293;-75
2022/08/26 02:08:39;;;;;;;;;;;20.20;99.90;;;;;;5018284;28;19921;-75
2022/08/26 02:11:05;;;;;;;;;;;20.10;99.90;;;;;;5044465;28;19920;-75
2022/08/26 02:13:33;;;;;;;;;;;20.20;99.90;;;;;;5011034;28;19913;-73
2022/08/26 02:15:59;;;;;;;;;;;20.20;99.90;;;;;;5036410;28;19913;-72
2022/08/26 02:18:26;;;;;;;;;;;20.20;99.90;;;;;;5036472;28;20340;-74
2022/08/26 02:20:53;;;;;;;;;;;20.20;99.90;;;;;;5064510;28;20375;-75
2022/08/26 02:23:18;;;;;;;;;;;20.20;99.90;;;;;;5023876;28;19910;-75
2022/08/26 02:26:04;;;;;;;;;;;20.10;99.90;;;;;;5047936;28;19960;-73
2022/08/26 02:28:33;;;;;;;;;;;20.20;99.90;;;;;;5032765;28;20353;-71
2022/08/26 02:30:58;;;;;;;;;;;20.20;99.90;;;;;;5032031;28;20192;-72
2022/08/26 02:33:26;;;;;;;;;;;20.10;99.90;;;;;;5044717;28;19987;-72
2022/08/26 02:35:51;;;;;;;;;;;20.10;99.90;;;;;;5063323;28;19960;-73
2022/08/26 02:38:17;;;;;;;;;;;20.10;99.90;;;;;;5028450;28;19962;-71
2022/08/26 02:40:43;;;;;;;;;;;20.10;99.90;;;;;;5038028;28;19924;-72
2022/08/26 02:43:08;;;;;;;;;;;20.10;99.90;;;;;;5047372;28;19913;-72
2022/08/26 02:45:34;;;;;;;;;;;20.10;99.90;;;;;;5042792;28;19913;-73
2022/08/26 02:48:06;;;;;;;;;;;20.10;99.90;;;;;;5037830;28;19916;-73
2022/08/26 02:50:33;;;;;;;;;;;20.10;99.90;;;;;;5028960;28;19925;-74
2022/08/26 02:52:59;;;;;;;;;;;20.10;99.90;;;;;;5041291;28;20212;-71
2022/08/26 02:55:24;;;;;;;;;;;20.10;99.90;;;;;;5040696;28;21786;-72
2022/08/26 02:57:50;;;;;;;;;;;20.10;99.90;;;;;;5039141;28;20011;-73
2022/08/26 03:00:16;;;;;;;;;;;20.00;99.90;;;;;;5020450;28;20177;-72
2022/08/26 03:02:42;;;;;;;;;;;20.00;99.90;;;;;;5055673;28;20415;-73
2022/08/26 03:05:07;;;;;;;;;;;20.00;99.90;;;;;;5042039;28;20008;-73
2022/08/26 03:07:33;;;;;;;;;;;20.00;99.90;;;;;;5039881;28;20306;-74
2022/08/26 03:09:59;;;;;;;;;;;20.00;99.90;;;;;;5027495;28;19914;-71
2022/08/26 03:12:25;;;;;;;;;;;20.00;99.90;;;;;;5040083;28;20312;-76
2022/08/26 03:14:50;;;;;;;;;;;20.00;99.90;;;;;;5050572;28;19928;-74
2022/08/26 03:17:16;;;;;;;;;;;20.00;99.90;;;;;;5035580;28;20315;-72
2022/08/26 03:19:41;;;;;;;;;;;20.00;99.90;;;;;;5045888;28;20612;-74
2022/08/26 03:22:07;;;;;;;;;;;20.00;99.90;;;;;;5028248;28;19917;-72
2022/08/26 03:24:33;;;;;;;;;;;20.00;99.90;;;;;;5039173;28;19923;-74
2022/08/26 03:27:00;;;;;;;;;;;20.00;99.90;;;;;;5020816;28;19943;-75
2022/08/26 03:32:10;;;;;;;;;;;20.00;99.90;;;;;;5036514;28;19916;-76
2022/08/26 03:34:36;;;;;;;;;;;20.00;99.90;;;;;;5036305;28;20194;-76
2022/08/26 03:37:01;;;;;;;;;;;20.00;99.90;;;;;;5043009;28;20308;-74
2022/08/26 03:39:27;;;;;;;;;;;20.00;99.90;;;;;;5038434;28;19939;-76
2022/08/26 03:41:54;;;;;;;;;;;20.00;99.90;;;;;;5026099;28;19916;-75
2022/08/26 03:44:20;;;;;;;;;;;20.00;99.90;;;;;;5018163;28;19952;-75
2022/08/26 03:46:45;;;;;;;;;;;20.00;99.90;;;;;;5036891;28;19963;-75
2022/08/26 03:49:11;;;;;;;;;;;20.00;99.90;;;;;;5026558;28;19951;-79
2022/08/26 03:51:36;;;;;;;;;;;19.90;99.90;;;;;;5037115;28;19921;-75
2022/08/26 03:54:02;;;;;;;;;;;19.90;99.90;;;;;;5045399;28;20047;-73
2022/08/26 03:56:32;;;;;;;;;;;19.90;99.90;;;;;;5032077;28;19970;-76
2022/08/26 03:58:58;;;;;;;;;;;19.90;99.90;;;;;;5029241;28;19917;-75
2022/08/26 04:01:24;;;;;;;;;;;19.80;99.90;;;;;;5019317;28;19964;-75
2022/08/26 04:03:59;;;;;;;;;;;19.80;99.90;;;;;;5049732;28;20275;-74
2022/08/26 04:06:29;;;;;;;;;;;19.80;99.90;;;;;;5050660;28;19921;-73
2022/08/26 04:08:55;;;;;;;;;;;19.80;99.90;;;;;;5034913;28;19945;-74
2022/08/26 04:11:22;;;;;;;;;;;19.80;99.90;;;;;;5022473;28;19920;-73
2022/08/26 04:13:48;;;;;;;;;;;19.70;99.90;;;;;;5037946;28;19923;-75
2022/08/26 04:16:14;;;;;;;;;;;19.70;99.90;;;;;;5038159;28;19909;-73
2022/08/26 04:18:40;;;;;;;;;;;19.70;99.90;;;;;;5037947;28;19990;-74
2022/08/26 04:21:06;;;;;;;;;;;19.70;99.90;;;;;;5042667;28;20321;-73
2022/08/26 04:23:32;;;;;;;;;;;19.70;99.90;;;;;;5037292;28;19919;-73
2022/08/26 04:25:58;;;;;;;;;;;19.70;99.90;;;;;;5029253;28;20000;-72
2022/08/26 04:28:24;;;;;;;;;;;19.70;99.90;;;;;;5036586;28;20208;-76
2022/08/26 04:30:49;;;;;;;;;;;19.70;99.90;;;;;;5021977;28;20027;-73
2022/08/26 04:33:15;;;;;;;;;;;19.60;99.90;;;;;;5037617;28;19913;-73
2022/08/26 04:35:42;;;;;;;;;;;19.70;99.90;;;;;;5019412;28;19955;-74
2022/08/26 04:38:09;;;;;;;;;;;19.70;99.90;;;;;;5016078;28;19917;-74
2022/08/26 04:40:34;;;;;;;;;;;19.60;99.90;;;;;;5025881;28;19921;-73
2022/08/26 04:43:00;;;;;;;;;;;19.70;99.90;;;;;;5037918;28;19909;-72
2022/08/26 04:45:25;;;;;;;;;;;19.60;99.90;;;;;;5036627;28;19913;-74
2022/08/26 04:47:53;;;;;;;;;;;19.60;99.90;;;;;;5037281;28;19913;-75
2022/08/26 04:50:19;;;;;;;;;;;19.70;99.90;;;;;;5038893;28;20449;-75
2022/08/26 04:52:44;;;;;;;;;;;19.60;99.90;;;;;;5035614;28;19913;-76
2022/08/26 04:55:10;;;;;;;;;;;19.60;99.90;;;;;;5037404;28;19917;-75
2022/08/26 04:57:36;;;;;;;;;;;19.50;99.90;;;;;;5034618;28;19917;-74
2022/08/26 05:00:05;;;;;;;;;;;19.50;99.90;;;;;;5036716;28;19963;-79
2022/08/26 05:02:31;;;;;;;;;;;19.50;99.90;;;;;;5024629;28;19922;-75
2022/08/26 05:04:57;;;;;;;;;;;19.50;99.90;;;;;;5037345;28;19982;-74
2022/08/26 05:07:22;;;;;;;;;;;19.50;99.90;;;;;;5051559;28;20251;-73
2022/08/26 05:09:48;;;;;;;;;;;19.40;99.90;;;;;;5054969;28;19916;-76
2022/08/26 05:12:13;;;;;;;;;;;19.50;99.90;;;;;;5053313;28;19932;-76
2022/08/26 05:14:40;;;;;;;;;;;19.40;99.90;;;;;;5037151;28;19917;-77
2022/08/26 05:17:05;;;;;;;;;;;19.50;99.90;;;;;;5053057;28;19920;-75
2022/08/26 05:19:31;;;;;;;;;;;19.50;99.90;;;;;;5053847;28;20232;-74
2022/08/26 05:21:57;;;;;;;;;;;19.50;99.90;;;;;;5055632;28;19924;-75
2022/08/26 05:24:23;;;;;;;;;;;19.60;99.90;;;;;;5035596;28;19928;-75
2022/08/26 05:26:48;;;;;;;;;;;19.60;99.90;;;;;;5054729;28;19999;-74
2022/08/26 05:29:14;;;;;;;;;;;19.60;99.90;;;;;;5056027;28;19999;-72
2022/08/26 05:31:40;;;;;;;;;;;19.60;99.90;;;;;;5037816;28;19923;-74
2022/08/26 05:34:06;;;;;;;;;;;19.60;99.90;;;;;;5054290;28;20010;-72
2022/08/26 05:36:33;;;;;;;;;;;19.60;99.90;;;;;;5054416;28;19921;-75
2022/08/26 05:38:58;;;;;;;;;;;19.60;99.90;;;;;;5037458;28;19915;-75
2022/08/26 05:41:27;;;;;;;;;;;19.70;99.90;;;;;;5052984;28;19995;-74
2022/08/26 05:43:54;;;;;;;;;;;19.70;99.90;;;;;;5054319;28;20007;-74
2022/08/26 05:46:20;;;;;;;;;;;19.70;99.90;;;;;;5036457;28;19912;-71
2022/08/26 05:48:46;;;;;;;;;;;19.70;99.90;;;;;;5036911;28;20362;-75
2022/08/26 05:51:12;;;;;;;;;;;19.70;99.90;;;;;;5036817;28;20315;-72
2022/08/26 05:53:39;;;;;;;;;;;19.70;99.90;;;;;;5050388;28;19912;-73
2022/08/26 05:56:05;;;;;;;;;;;19.70;99.90;;;;;;5051357;28;20437;-74
2022/08/26 05:58:32;;;;;;;;;;;19.80;99.90;;;;;;5053951;28;19916;-71
2022/08/26 06:00:59;;;;;;;;;;;19.80;99.90;;;;;;5055145;28;19917;-74
2022/08/26 06:03:25;;;;;;;;;;;19.90;99.90;;;;;;5052144;28;20009;-72
2022/08/26 06:05:51;;;;;;;;;;;19.80;99.90;;;;;;5032368;28;20004;-72
2022/08/26 06:08:17;;;;;;;;;;;19.90;99.90;;;;;;5028625;28;19921;-72
2022/08/26 06:10:44;;;;;;;;;;;20.00;99.90;;;;;;5027983;28;20272;-76
2022/08/26 06:13:10;;;;;;;;;;;20.00;99.90;;;;;;5025425;28;20300;-78
2022/08/26 06:15:44;;;;;;;;;;;20.00;99.90;;;;;;5023329;28;19925;-75
2022/08/26 06:18:10;;;;;;;;;;;20.00;99.90;;;;;;5030087;28;20044;-71
2022/08/26 06:20:36;;;;;;;;;;;20.00;99.90;;;;;;5029553;28;19975;-78
2022/08/26 06:25:47;;;;;;;;;;;20.10;99.90;;;;;;5031398;28;19963;-75
2022/08/26 06:28:14;;;;;;;;;;;20.10;99.90;;;;;;5029318;28;20004;-75
2022/08/26 06:30:40;;;;;;;;;;;20.10;99.90;;;;;;5033649;28;19917;-72
2022/08/26 06:33:06;;;;;;;;;;;20.20;99.90;;;;;;5026246;28;19913;-73
2022/08/26 06:35:39;;;;;;;;;;;20.10;99.90;;;;;;5033034;28;19927;-74
2022/08/26 06:38:05;;;;;;;;;;;20.10;99.90;;;;;;5034365;28;19917;-73
2022/08/26 06:40:31;;;;;;;;;;;20.10;99.90;;;;;;5026227;28;19913;-75
2022/08/26 06:42:57;;;;;;;;;;;20.10;99.90;;;;;;5029197;28;19921;-72
2022/08/26 06:45:23;;;;;;;;;;;20.10;99.90;;;;;;5032946;28;20362;-74
2022/08/26 06:47:48;;;;;;;;;;;20.10;99.90;;;;;;5033365;28;20249;-72
2022/08/26 06:50:14;;;;;;;;;;;20.20;99.90;;;;;;5034398;28;19913;-73
2022/08/26 06:52:40;;;;;;;;;;;20.20;99.90;;;;;;5032934;28;19921;-75
2022/08/26 06:55:06;;;;;;;;;;;20.20;99.90;;;;;;5033474;28;19959;-74
2022/08/26 06:57:33;;;;;;;;;;;20.20;99.90;;;;;;5033470;28;19956;-73
2022/08/26 06:59:58;;;;;;;;;;;20.20;99.90;;;;;;5032220;28;19917;-73
2022/08/26 07:02:24;;;;;;;;;;;20.10;99.90;;;;;;5027107;28;19920;-74
2022/08/26 07:04:49;;;;;;;;;;;20.10;99.90;;;;;;5027491;28;20007;-75
2022/08/26 07:07:15;;;;;;;;;;;20.20;99.90;;;;;;5010494;28;19924;-75
2022/08/26 07:09:41;;;;;;;;;;;20.20;99.90;;;;;;5025467;28;20013;-72
2022/08/26 07:12:06;;;;;;;;;;;20.30;99.90;;;;;;5032400;28;20023;-72
2022/08/26 07:14:32;;;;;;;;;;;20.30;99.90;;;;;;5032733;28;19921;-74
2022/08/26 07:17:00;;;;;;;;;;;20.40;99.90;;;;;;5026407;28;19921;-76
2022/08/26 07:19:25;;;;;;;;;;;20.30;99.90;;;;;;5032240;28;19914;-73
2022/08/26 07:21:51;;;;;;;;;;;20.30;99.90;;;;;;5031678;28;19992;-74
2022/08/26 07:24:16;;;;;;;;;;;20.30;99.90;;;;;;5031878;28;19929;-73
2022/08/26 07:26:42;;;;;;;;;;;20.30;99.90;;;;;;5029268;28;19917;-71
2022/08/26 07:29:07;;;;;;;;;;;20.30;99.90;;;;;;5026963;28;19924;-71
2022/08/26 07:31:35;;;;;;;;;;;20.30;99.90;;;;;;5031874;28;20248;-72
2022/08/26 07:34:01;;;;;;;;;;;20.30;99.90;;;;;;5044285;28;19932;-74
2022/08/26 07:36:27;;;;;;;;;;;20.20;99.90;;;;;;5032301;28;20228;-74
2022/08/26 07:38:53;;;;;;;;;;;20.30;99.90;;;;;;5027243;28;20308;-75
2022/08/26 07:41:21;;;;;;;;;;;20.30;99.90;;;;;;5029265;28;19921;-74
2022/08/26 07:43:47;;;;;;;;;;;20.30;99.90;;;;;;5030505;28;19928;-75
2022/08/26 07:46:18;;;;;;;;;;;20.30;99.90;;;;;;5029801;28;19925;-73
2022/08/26 07:48:48;;;;;;;;;;;20.20;99.90;;;;;;5030957;28;20386;-75
2022/08/26 07:51:18;;;;;;;;;;;20.20;99.90;;;;;;5036768;28;20043;-74
2022/08/26 07:53:44;;;;;;;;;;;20.20;99.90;;;;;;5029486;28;20177;-71
2022/08/26 07:56:10;;;;;;;;;;;20.10;99.90;;;;;;5029918;28;19951;-73
2022/08/26 07:58:35;;;;;;;;;;;20.10;99.90;;;;;;5030461;28;19944;-74
2022/08/26 08:01:01;;;;;;;;;;;20.20;99.90;;;;;;5031541;28;19917;-72
2022/08/26 08:03:26;;;;;;;;;;;20.20;99.90;;;;;;5032429;28;19917;-73
2022/08/26 08:05:52;;;;;;;;;;;20.20;99.90;;;;;;5047647;28;19925;-70
2022/08/26 08:08:18;;;;;;;;;;;20.20;99.90;;;;;;5050646;28;20015;-72
2022/08/26 08:10:44;;;;;;;;;;;20.20;99.90;;;;;;5052912;28;19924;-81
2022/08/26 08:13:10;;;;;;;;;;;20.20;99.90;;;;;;5034591;28;19912;-72
2022/08/26 08:15:36;;;;;;;;;;;20.20;99.90;;;;;;5047682;28;19917;-72
2022/08/26 08:18:02;;;;;;;;;;;20.20;99.90;;;;;;5052839;28;19917;-72
2022/08/26 08:20:28;;;;;;;;;;;20.20;99.90;;;;;;5052106;28;19952;-73
2022/08/26 08:22:54;;;;;;;;;;;20.20;99.90;;;;;;5033552;28;19920;-74
2022/08/26 08:25:20;;;;;;;;;;;20.20;99.90;;;;;;5050275;28;19913;-71
2022/08/26 08:27:48;;;;;;;;;;;20.20;99.90;;;;;;5032055;28;21247;-73
2022/08/26 08:30:14;;;;;;;;;;;20.20;99.90;;;;;;5052453;28;19913;-73
2022/08/26 08:32:42;;;;;;;;;;;20.20;99.90;;;;;;5066659;28;19932;-75
2022/08/26 08:35:08;;;;;;;;;;;20.30;99.90;;;;;;5051349;28;20415;-76
2022/08/26 08:37:34;;;;;;;;;;;20.30;99.90;;;;;;5051520;28;19913;-74
2022/08/26 08:40:00;;;;;;;;;;;20.30;99.90;;;;;;5051422;28;20416;-70
2022/08/26 08:42:28;;;;;;;;;;;20.30;99.90;;;;;;5051157;28;19978;-74
2022/08/26 08:44:58;;;;;;;;;;;20.40;99.90;;;;;;5037999;28;19963;-71
2022/08/26 08:47:32;;;;;;;;;;;20.40;99.90;;;;;;5056316;28;20300;-77
2022/08/26 08:50:01;;;;;;;;;;;20.40;99.90;;;;;;5055405;28;20008;-74
2022/08/26 08:52:29;;;;;;;;;;;20.40;99.90;;;;;;5053990;28;19974;-73
2022/08/26 08:54:55;;;;;;;;;;;20.50;99.90;;;;;;5054848;28;19952;-72
2022/08/26 08:57:24;;;;;;;;;;;20.50;99.90;;;;;;5055357;28;19967;-73
2022/08/26 08:59:57;;;;;;;;;;;20.60;99.90;;;;;;5055171;28;20330;-72
2022/08/26 09:02:28;;;;;;;;;;;20.60;99.90;;;;;;5055468;28;19921;-74
2022/08/26 09:04:54;;;;;;;;;;;20.60;99.90;;;;;;5044753;28;19928;-72
2022/08/26 09:07:31;;;;;;;;;;;20.70;99.90;;;;;;5035865;28;19921;-74
2022/08/26 09:10:17;;;;;;;;;;;20.70;99.90;;;;;;5035341;28;19971;-73
2022/08/26 09:12:44;;;;;;;;;;;20.80;99.90;;;;;;5006042;28;19944;-76
2022/08/26 09:15:29;;;;;;;;;;;20.80;99.90;;;;;;5015893;28;20356;-73
2022/08/26 09:18:04;;;;;;;;;;;20.90;99.90;;;;;;5035787;28;19994;-80
2022/08/26 09:20:35;;;;;;;;;;;21.00;99.90;;;;;;5034483;28;20078;-74
2022/08/26 09:23:01;;;;;;;;;;;21.10;99.90;;;;;;5034767;28;19917;-74
2022/08/26 09:25:27;;;;;;;;;;;21.20;99.90;;;;;;5016899;28;19927;-74
2022/08/26 09:27:53;;;;;;;;;;;21.10;99.90;;;;;;4998440;28;19983;-75
2022/08/26 09:30:28;;;;;;;;;;;21.10;99.90;;;;;;5031161;28;19913;-73
2022/08/26 09:32:57;;;;;;;;;;;21.20;99.90;;;;;;5033774;28;20023;-75
2022/08/26 09:35:29;;;;;;;;;;;21.00;99.90;;;;;;5016699;28;20381;-72
2022/08/26 09:37:55;;;;;;;;;;;21.00;99.90;;;;;;5023768;28;19920;-75
2022/08/26 09:40:21;;;;;;;;;;;20.90;99.90;;;;;;5017906;28;19913;-75
2022/08/26 09:43:03;;;;;;;;;;;20.90;99.90;;;;;;5015393;28;19968;-72
2022/08/26 09:45:29;;;;;;;;;;;20.80;99.90;;;;;;5032867;28;19913;-77
2022/08/26 09:47:55;;;;;;;;;;;20.70;99.90;;;;;;5034426;28;19924;-74
2022/08/26 09:50:30;;;;;;;;;;;20.70;99.90;;;;;;5033856;28;19941;-74
2022/08/26 09:53:01;;;;;;;;;;;20.70;99.90;;;;;;5034325;28;19959;-76
2022/08/26 09:55:27;;;;;;;;;;;20.70;99.90;;;;;;5034631;28;20016;-76
2022/08/26 09:57:54;;;;;;;;;;;20.80;99.90;;;;;;5017212;28;20007;-73
2022/08/26 10:00:22;;;;;;;;;;;20.70;99.90;;;;;;5017000;28;19912;-75
2022/08/26 10:02:48;;;;;;;;;;;20.70;99.90;;;;;;5032861;28;19963;-75
2022/08/26 10:05:17;;;;;;;;;;;20.70;99.90;;;;;;5038980;28;20263;-74
2022/08/26 10:07:47;;;;;;;;;;;20.60;99.90;;;;;;5042694;28;19952;-77
2022/08/26 10:10:22;;;;;;;;;;;20.60;99.90;;;;;;5025053;28;20315;-73
2022/08/26 10:12:51;;;;;;;;;;;20.70;99.90;;;;;;5006367;28;20320;-82
2022/08/26 10:15:17;;;;;;;;;;;20.60;99.90;;;;;;5044915;28;20331;-80
2022/08/26 10:17:50;;;;;;;;;;;20.60;99.90;;;;;;5039535;28;19924;-76
2022/08/26 10:20:19;;;;;;;;;;;20.60;99.90;;;;;;5037947;28;20287;-76
2022/08/26 10:22:59;;;;;;;;;;;20.60;99.90;;;;;;5041271;28;19970;-76
2022/08/26 10:25:28;;;;;;;;;;;20.60;99.90;;;;;;5042434;28;19912;-75
2022/08/26 10:27:58;;;;;;;;;;;20.70;99.90;;;;;;5042592;28;19923;-75
2022/08/26 10:30:29;;;;;;;;;;;20.70;99.90;;;;;;5024750;28;19924;-74
2022/08/26 10:33:04;;;;;;;;;;;20.70;99.90;;;;;;5038795;28;19929;-75
2022/08/26 10:35:31;;;;;;;;;;;20.70;99.90;;;;;;5040277;28;20159;-75
2022/08/26 10:38:00;;;;;;;;;;;20.80;99.90;;;;;;5044535;28;19921;-75
2022/08/26 10:40:44;;;;;;;;;;;20.80;99.90;;;;;;5054458;28;19920;-76
2022/08/26 10:43:16;;;;;;;;;;;20.80;99.90;;;;;;5040255;28;19920;-73
2022/08/26 10:45:45;;;;;;;;;;;20.80;99.90;;;;;;5037221;28;20306;-74
2022/08/26 10:48:37;;;;;;;;;;;20.90;99.90;;;;;;5037233;28;20332;-73
2022/08/26 10:51:03;;;;;;;;;;;20.90;99.90;;;;;;4982704;28;20005;-77
2022/08/26 10:53:29;;;;;;;;;;;20.90;99.90;;;;;;4982152;28;20507;-74
2022/08/26 10:55:59;;;;;;;;;;;21.00;99.90;;;;;;4979550;28;19922;-74
2022/08/26 10:58:27;;;;;;;;;;;20.90;99.90;;;;;;4965876;28;19914;-72
2022/08/26 11:04:03;;;;;;;;;;;21.00;99.90;;;;;;4980039;28;20031;-75
2022/08/26 11:06:30;;;;;;;;;;;21.00;99.90;;;;;;4971485;28;19927;-74
2022/08/26 11:09:00;;;;;;;;;;;21.00;99.90;;;;;;4970756;28;19964;-74
2022/08/26 11:11:40;;;;;;;;;;;21.00;99.90;;;;;;4972221;28;19965;-74
2022/08/26 11:14:18;;;;;;;;;;;20.90;99.90;;;;;;4972445;28;19922;-72
2022/08/26 11:16:50;;;;;;;;;;;21.00;99.90;;;;;;4971861;28;20371;-76
2022/08/26 11:19:40;;;;;;;;;;;21.10;99.90;;;;;;4972278;28;19914;-74
2022/08/26 11:22:10;;;;;;;;;;;21.10;99.90;;;;;;4954289;28;19914;-73
2022/08/26 11:24:39;;;;;;;;;;;21.10;99.90;;;;;;4971914;28;19918;-77
2022/08/26 11:27:06;;;;;;;;;;;21.00;99.90;;;;;;4980289;28;20004;-75
2022/08/26 11:29:50;;;;;;;;;;;20.90;99.90;;;;;;5033067;28;19952;-75
2022/08/26 11:32:24;;;;;;;;;;;20.80;99.90;;;;;;5032708;28;19953;-74
2022/08/26 11:34:52;;;;;;;;;;;20.80;99.90;;;;;;5014927;28;19921;-74
2022/08/26 11:37:19;;;;;;;;;;;20.80;99.90;;;;;;5031721;28;19963;-72
2022/08/26 11:39:47;;;;;;;;;;;20.80;99.90;;;;;;5015591;28;20001;-73
2022/08/26 11:42:28;;;;;;;;;;;20.80;99.90;;;;;;5032484;28;19925;-73
2022/08/26 11:44:54;;;;;;;;;;;20.80;99.90;;;;;;5031497;28;20292;-78
2022/08/26 11:47:27;;;;;;;;;;;20.90;99.90;;;;;;5029602;28;19913;-75
2022/08/26 11:50:26;;;;;;;;;;;20.90;99.90;;;;;;5027919;28;19925;-73
2022/08/26 11:52:53;;;;;;;;;;;20.90;99.90;;;;;;4972147;28;19918;-75
2022/08/26 11:55:19;;;;;;;;;;;20.90;99.90;;;;;;4969293;28;20502;-75
2022/08/26 11:57:48;;;;;;;;;;;20.90;99.90;;;;;;4971985;28;20000;-72
2022/08/26 12:00:20;;;;;;;;;;;21.00;99.90;;;;;;4955714;28;19914;-77
2022/08/26 12:02:46;;;;;;;;;;;21.10;99.90;;;;;;4985268;28;19918;-73
2022/08/26 12:05:23;;;;;;;;;;;21.00;99.90;;;;;;4980424;28;19941;-74
2022/08/26 12:07:50;;;;;;;;;;;21.00;99.90;;;;;;4985850;28;19922;-74
2022/08/26 12:10:24;;;;;;;;;;;20.80;99.90;;;;;;4982989;28;19914;-73
2022/08/26 12:12:53;;;;;;;;;;;20.80;99.90;;;;;;4986812;28;20225;-72
2022/08/26 12:15:21;;;;;;;;;;;20.70;99.90;;;;;;4991834;28;19918;-74
2022/08/26 12:17:48;;;;;;;;;;;20.70;99.90;;;;;;4985475;28;20375;-75
2022/08/26 12:20:47;;;;;;;;;;;20.70;99.90;;;;;;4993933;28;20032;-75
2022/08/26 12:23:30;;;;;;;;;;;20.70;99.90;;;;;;4993512;28;19964;-75
2022/08/26 12:26:22;;;;;;;;;;;20.80;99.90;;;;;;4991562;28;19957;-74
2022/08/26 12:28:50;;;;;;;;;;;20.80;99.90;;;;;;5030365;28;19974;-74
2022/08/26 12:31:21;;;;;;;;;;;20.80;99.90;;;;;;5054174;28;19913;-76
2022/08/26 12:33:47;;;;;;;;;;;20.80;99.90;;;;;;5036325;28;19928;-74
2022/08/26 12:36:16;;;;;;;;;;;20.80;99.90;;;;;;5052345;28;19925;-74
2022/08/26 12:38:42;;;;;;;;;;;20.80;99.90;;;;;;5033464;28;20433;-80
2022/08/26 12:41:08;;;;;;;;;;;20.90;99.90;;;;;;5036891;28;19920;-72
2022/08/26 12:43:41;;;;;;;;;;;20.80;99.90;;;;;;5030945;28;19971;-72
2022/08/26 12:46:09;;;;;;;;;;;20.80;99.90;;;;;;5053900;28;19917;-74
2022/08/26 12:48:37;;;;;;;;;;;20.80;99.90;;;;;;5035332;28;19917;-73
2022/08/26 12:51:08;;;;;;;;;;;20.80;99.90;;;;;;5030839;28;20446;-76
2022/08/26 12:53:40;;;;;;;;;;;20.80;99.90;;;;;;5052664;28;19917;-73
2022/08/26 12:56:26;;;;;;;;;;;20.70;99.90;;;;;;5033853;28;19925;-72
2022/08/26 12:59:10;;;;;;;;;;;20.70;99.90;;;;;;5051604;28;19923;-73
2022/08/26 13:01:41;;;;;;;;;;;20.70;99.90;;;;;;5050778;28;20275;-72
2022/08/26 13:04:27;;;;;;;;;;;20.70;99.90;;;;;;5049495;28;19927;-76
2022/08/26 13:07:10;;;;;;;;;;;20.70;99.90;;;;;;5051461;28;19917;-75
2022/08/26 13:09:37;;;;;;;;;;;20.70;99.90;;;;;;5053228;28;19974;-72
2022/08/26 13:12:03;;;;;;;;;;;20.70;99.90;;;;;;5053813;28;19936;-72
2022/08/26 13:14:29;;;;;;;;;;;20.60;99.90;;;;;;5037245;28;19921;-75
2022/08/26 13:16:55;;;;;;;;;;;20.60;99.90;;;;;;5052918;28;20003;-74
2022/08/26 13:19:22;;;;;;;;;;;20.70;99.90;;;;;;5054876;28;20000;-73
2022/08/26 13:21:49;;;;;;;;;;;20.60;99.90;;;;;;5036695;28;19927;-75
2022/08/26 13:24:24;;;;;;;;;;;20.60;99.90;;;;;;5037408;28;20338;-72
2022/08/26 13:26:49;;;;;;;;;;;20.70;99.90;;;;;;5053693;28;20011;-73
2022/08/26 13:29:15;;;;;;;;;;;20.70;99.90;;;;;;5050398;28;19992;-75
2022/08/26 13:31:41;;;;;;;;;;;20.70;99.90;;;;;;5054029;28;20310;-74
2022/08/26 13:34:08;;;;;;;;;;;20.70;99.90;;;;;;5054245;28;19916;-71
2022/08/26 13:36:33;;;;;;;;;;;20.80;99.90;;;;;;5053307;28;19913;-72
2022/08/26 13:38:59;;;;;;;;;;;20.80;99.90;;;;;;5053632;28;19919;-73
2022/08/26 13:41:25;;;;;;;;;;;20.80;99.90;;;;;;5053650;28;19913;-73
2022/08/26 13:43:51;;;;;;;;;;;20.80;99.90;;;;;;5053123;28;19912;-74
2022/08/26 13:46:18;;;;;;;;;;;20.90;99.90;;;;;;5053905;28;20339;-72
2022/08/26 13:48:44;;;;;;;;;;;20.80;99.90;;;;;;5053176;28;19923;-73
2022/08/26 13:51:10;;;;;;;;;;;20.80;99.90;;;;;;5035770;28;19917;-71
2022/08/26 13:53:35;;;;;;;;;;;20.90;99.90;;;;;;5052289;28;19920;-76
2022/08/26 13:56:01;;;;;;;;;;;21.00;99.90;;;;;;5037153;28;20015;-76
2022/08/26 13:58:27;;;;;;;;;;;21.10;99.90;;;;;;5020125;28;19927;-73
2022/08/26 14:00:53;;;;;;;;;;;21.10;99.90;;;;;;5036808;28;20193;-74
2022/08/26 14:03:18;;;;;;;;;;;21.10;99.90;;;;;;5053066;28;19921;-76
2022/08/26 14:05:44;;;;;;;;;;;21.10;99.90;;;;;;5052260;28;19924;-75
2022/08/26 14:08:10;;;;;;;;;;;21.00;99.90;;;;;;5053363;28;19913;-72
2022/08/26 14:10:36;;;;;;;;;;;21.00;99.90;;;;;;5068188;28;19962;-74
2022/08/26 14:13:01;;;;;;;;;;;21.00;99.90;;;;;;5052606;28;20273;-74
2022/08/26 14:15:27;;;;;;;;;;;21.00;99.90;;;;;;5052149;28;19925;-74
2022/08/26 14:17:53;;;;;;;;;;;20.90;99.90;;;;;;5052120;28;19917;-72
2022/08/26 14:20:27;;;;;;;;;;;20.80;99.90;;;;;;5039709;28;19913;-77
2022/08/26 14:22:52;;;;;;;;;;;20.80;99.90;;;;;;5055099;28;20461;-72
2022/08/26 14:25:18;;;;;;;;;;;20.90;99.90;;;;;;5050320;28;19928;-76
2022/08/26 14:27:44;;;;;;;;;;;20.90;99.90;;;;;;5059665;28;19997;-73
2022/08/26 14:30:10;;;;;;;;;;;20.90;99.90;;;;;;5047935;28;20308;-74